createdAt,value
2018-01-24T00:00:30.553Z,45.60
2018-01-24T00:01:30.559Z,46.26
2018-01-24T00:02:30.565Z,46.73
2018-01-24T00:03:30.574Z,47.77
2018-01-24T00:04:30.579Z,47.77
2018-01-24T00:05:30.584Z,47.77
2018-01-24T00:06:30.591Z,49.19
2018-01-24T00:07:30.598Z,49.95
2018-01-24T00:08:30.605Z,49.85
2018-01-24T00:09:30.610Z,49.19
2018-01-24T00:10:30.621Z,49.19
2018-01-24T00:11:30.626Z,48.25
2018-01-24T00:12:30.631Z,47.49
2018-01-24T00:13:30.637Z,46.64
2018-01-24T00:14:30.642Z,46.45
2018-01-24T00:15:30.649Z,46.07
2018-01-24T00:16:30.657Z,45.60
2018-01-24T00:17:30.663Z,44.56
2018-01-24T00:18:30.669Z,45.31
2018-01-24T00:19:30.675Z,45.22
2018-01-24T00:20:30.684Z,45.60
2018-01-24T00:21:30.688Z,45.88
2018-01-24T00:22:30.695Z,45.31
2018-01-24T00:23:30.701Z,45.41
2018-01-24T00:24:30.707Z,46.07
2018-01-24T00:25:30.714Z,46.45
2018-01-24T00:26:30.722Z,45.22
2018-01-24T00:27:30.728Z,45.22
2018-01-24T00:28:30.734Z,44.56
2018-01-24T00:29:30.739Z,44.46
2018-01-24T00:30:30.746Z,44.37
2018-01-24T00:31:30.754Z,43.99
2018-01-24T00:32:30.759Z,42.85
2018-01-24T00:33:30.767Z,43.52
2018-01-24T00:34:30.773Z,42.85
2018-01-24T00:35:30.779Z,44.09
2018-01-24T00:36:30.787Z,43.90
2018-01-24T00:37:30.792Z,43.99
2018-01-24T00:38:30.799Z,43.71
2018-01-24T00:39:30.805Z,43.14
2018-01-24T00:40:30.812Z,43.42
2018-01-24T00:41:30.818Z,43.80
2018-01-24T00:42:30.825Z,43.90
2018-01-24T00:43:30.831Z,43.23
2018-01-24T00:44:30.839Z,43.23
2018-01-24T00:45:30.844Z,43.23
2018-01-24T00:46:30.851Z,43.90
2018-01-24T00:47:30.860Z,43.71
2018-01-24T00:48:30.866Z,43.23
2018-01-24T00:49:30.872Z,43.04
2018-01-24T00:50:30.876Z,42.66
2018-01-24T00:51:30.885Z,43.04
2018-01-24T00:52:30.891Z,44.27
2018-01-24T00:53:30.900Z,44.56
2018-01-24T00:54:30.903Z,44.65
2018-01-24T00:55:30.912Z,44.18
2018-01-24T00:56:30.918Z,44.37
2018-01-24T00:57:30.925Z,43.99
2018-01-24T00:58:30.933Z,43.23
2018-01-24T00:59:30.938Z,43.71
2018-01-24T01:00:30.946Z,41.91
2018-01-24T01:01:30.951Z,42.47
2018-01-24T01:02:30.958Z,42.66
2018-01-24T01:03:30.964Z,42.47
2018-01-24T01:04:30.971Z,42.29
2018-01-24T01:05:30.979Z,43.04
2018-01-24T01:06:30.986Z,43.04
2018-01-24T01:07:30.992Z,42.19
2018-01-24T01:08:30.997Z,41.72
2018-01-24T01:09:31.004Z,41.63
2018-01-24T01:10:31.011Z,40.49
2018-01-24T01:11:31.017Z,41.53
2018-01-24T01:12:31.025Z,42.85
2018-01-24T01:13:31.037Z,42.66
2018-01-24T01:14:31.039Z,40.58
2018-01-24T01:15:31.045Z,39.64
2018-01-24T01:16:31.052Z,40.58
2018-01-24T01:17:31.061Z,40.68
2018-01-24T01:18:31.065Z,41.25
2018-01-24T01:19:31.072Z,42.57
2018-01-24T01:20:31.079Z,43.80
2018-01-24T01:21:31.086Z,44.56
2018-01-24T01:22:31.094Z,44.93
2018-01-24T01:23:31.099Z,45.69
2018-01-24T01:24:31.106Z,45.60
2018-01-24T01:25:31.114Z,45.50
2018-01-24T01:26:31.120Z,45.41
2018-01-24T01:27:31.125Z,45.22
2018-01-24T01:28:31.133Z,45.79
2018-01-24T01:29:31.140Z,45.69
2018-01-24T01:30:31.147Z,44.56
2018-01-24T01:31:31.152Z,45.22
2018-01-24T01:32:31.161Z,45.98
2018-01-24T01:33:31.166Z,46.64
2018-01-24T01:34:31.173Z,46.64
2018-01-24T01:35:31.181Z,47.02
2018-01-24T01:36:31.187Z,46.83
2018-01-24T01:37:31.194Z,47.68
2018-01-24T01:38:31.201Z,47.02
2018-01-24T01:39:31.208Z,47.02
2018-01-24T01:40:31.213Z,46.73
2018-01-24T01:41:31.221Z,46.92
2018-01-24T01:42:31.227Z,47.11
2018-01-24T01:43:31.233Z,46.73
2018-01-24T01:44:31.241Z,46.45
2018-01-24T01:45:31.247Z,46.36
2018-01-24T01:46:31.254Z,46.07
2018-01-24T01:47:31.261Z,45.98
2018-01-24T01:48:31.268Z,45.69
2018-01-24T01:49:31.274Z,45.12
2018-01-24T01:50:31.280Z,45.03
2018-01-24T01:51:31.287Z,45.79
2018-01-24T01:52:31.294Z,45.60
2018-01-24T01:53:31.302Z,45.31
2018-01-24T01:54:31.307Z,45.79
2018-01-24T01:55:31.315Z,45.22
2018-01-24T01:56:31.322Z,45.50
2018-01-24T01:57:31.327Z,45.69
2018-01-24T01:58:31.334Z,45.79
2018-01-24T01:59:31.344Z,45.79
2018-01-24T02:00:31.347Z,45.12
2018-01-24T02:01:31.355Z,45.12
2018-01-24T02:02:31.364Z,43.99
2018-01-24T02:03:31.368Z,43.04
2018-01-24T02:04:31.374Z,41.34
2018-01-24T02:05:31.383Z,41.15
2018-01-24T02:06:31.387Z,40.68
2018-01-24T02:07:31.394Z,42.38
2018-01-24T02:08:31.401Z,43.99
2018-01-24T02:09:31.408Z,45.31
2018-01-24T02:10:31.417Z,45.50
2018-01-24T02:11:31.423Z,45.50
2018-01-24T02:12:31.429Z,45.41
2018-01-24T02:13:31.435Z,45.60
2018-01-24T02:14:31.442Z,45.69
2018-01-24T02:15:31.449Z,45.79
2018-01-24T02:16:31.457Z,46.17
2018-01-24T02:17:31.462Z,45.98
2018-01-24T02:18:31.473Z,46.55
2018-01-24T02:19:31.491Z,46.07
2018-01-24T02:20:31.485Z,46.73
2018-01-24T02:21:31.490Z,46.36
2018-01-24T02:22:31.498Z,46.45
2018-01-24T02:23:31.504Z,46.07
2018-01-24T02:24:31.512Z,45.79
2018-01-24T02:25:31.518Z,45.41
2018-01-24T02:26:31.525Z,45.22
2018-01-24T02:27:31.535Z,45.31
2018-01-24T02:28:31.538Z,44.65
2018-01-24T02:29:31.545Z,44.46
2018-01-24T02:30:31.554Z,44.56
2018-01-24T02:31:31.559Z,43.99
2018-01-24T02:32:31.567Z,42.95
2018-01-24T02:33:31.573Z,42.85
2018-01-24T02:34:31.578Z,43.42
2018-01-24T02:35:31.586Z,44.46
2018-01-24T02:36:31.594Z,45.50
2018-01-24T02:37:31.601Z,46.17
2018-01-24T02:38:31.606Z,46.36
2018-01-24T02:39:31.615Z,46.36
2018-01-24T02:40:31.620Z,45.60
2018-01-24T02:41:31.626Z,44.09
2018-01-24T02:42:31.633Z,43.23
2018-01-24T02:43:31.643Z,42.29
2018-01-24T02:44:31.648Z,42.00
2018-01-24T02:45:31.653Z,42.00
2018-01-24T02:46:31.660Z,42.47
2018-01-24T02:47:31.669Z,42.85
2018-01-24T02:48:31.674Z,43.04
2018-01-24T02:49:31.683Z,42.29
2018-01-24T02:50:31.687Z,41.63
2018-01-24T02:51:31.694Z,41.15
2018-01-24T02:52:31.703Z,41.63
2018-01-24T02:53:31.712Z,42.57
2018-01-24T02:54:31.714Z,43.99
2018-01-24T02:55:31.722Z,42.38
2018-01-24T02:56:31.728Z,41.91
2018-01-24T02:57:31.737Z,43.14
2018-01-24T02:58:31.742Z,43.23
2018-01-24T02:59:31.751Z,43.71
2018-01-24T03:00:31.756Z,43.90
2018-01-24T03:01:31.763Z,44.18
2018-01-24T03:02:31.796Z,44.46
2018-01-24T03:03:31.776Z,44.84
2018-01-24T03:04:31.785Z,44.74
2018-01-24T03:05:31.789Z,43.61
2018-01-24T03:06:31.798Z,42.00
2018-01-24T03:07:31.804Z,40.39
2018-01-24T03:08:31.810Z,40.68
2018-01-24T03:09:31.816Z,41.63
2018-01-24T03:10:31.823Z,42.00
2018-01-24T03:11:31.830Z,41.91
2018-01-24T03:12:31.837Z,41.91
2018-01-24T03:13:31.843Z,42.38
2018-01-24T03:14:31.851Z,43.23
2018-01-24T03:15:31.858Z,43.61
2018-01-24T03:16:31.865Z,43.99
2018-01-24T03:17:31.872Z,43.71
2018-01-24T03:18:31.882Z,43.99
2018-01-24T03:19:31.886Z,44.09
2018-01-24T03:20:31.894Z,43.80
2018-01-24T03:21:31.898Z,43.33
2018-01-24T03:22:31.906Z,43.14
2018-01-24T03:23:31.912Z,42.19
2018-01-24T03:24:31.920Z,42.38
2018-01-24T03:25:31.926Z,41.44
2018-01-24T03:26:31.932Z,40.20
2018-01-24T03:27:31.945Z,40.30
2018-01-24T03:28:31.946Z,40.77
2018-01-24T03:29:31.954Z,40.68
2018-01-24T03:30:31.963Z,41.06
2018-01-24T03:31:31.966Z,41.06
2018-01-24T03:32:31.972Z,41.82
2018-01-24T03:33:31.977Z,41.06
2018-01-24T03:34:31.986Z,40.39
2018-01-24T03:35:31.992Z,40.96
2018-01-24T03:36:32.000Z,41.34
2018-01-24T03:37:32.005Z,40.58
2018-01-24T03:38:32.012Z,41.34
2018-01-24T03:39:32.020Z,42.10
2018-01-24T03:40:32.029Z,42.66
2018-01-24T03:41:32.033Z,43.80
2018-01-24T03:42:32.039Z,44.09
2018-01-24T03:43:32.047Z,44.56
2018-01-24T03:44:32.054Z,44.65
2018-01-24T03:45:32.060Z,45.12
2018-01-24T03:46:32.068Z,45.31
2018-01-24T03:47:32.074Z,45.79
2018-01-24T03:48:32.080Z,45.31
2018-01-24T03:49:32.086Z,45.22
2018-01-24T03:50:32.094Z,45.03
2018-01-24T03:51:32.101Z,45.22
2018-01-24T03:52:32.107Z,44.74
2018-01-24T03:53:32.113Z,44.74
2018-01-24T03:54:32.119Z,45.12
2018-01-24T03:55:32.126Z,45.22
2018-01-24T03:56:32.134Z,45.41
2018-01-24T03:57:32.139Z,45.22
2018-01-24T03:58:32.146Z,45.79
2018-01-24T03:59:32.154Z,46.26
2018-01-24T04:00:32.160Z,45.98
2018-01-24T04:01:32.169Z,46.45
2018-01-24T04:02:32.173Z,46.55
2018-01-24T04:03:32.181Z,46.45
2018-01-24T04:04:32.187Z,46.45
2018-01-24T04:05:32.194Z,46.73
2018-01-24T04:06:32.201Z,46.73
2018-01-24T04:07:32.207Z,46.92
2018-01-24T04:08:32.213Z,47.02
2018-01-24T04:09:32.225Z,45.98
2018-01-24T04:10:32.226Z,45.50
2018-01-24T04:11:32.233Z,45.41
2018-01-24T04:12:32.241Z,45.69
2018-01-24T04:13:32.245Z,45.79
2018-01-24T04:14:32.253Z,45.79
2018-01-24T04:15:32.260Z,44.09
2018-01-24T04:16:32.269Z,42.85
2018-01-24T04:17:32.272Z,42.10
2018-01-24T04:18:32.280Z,43.23
2018-01-24T04:19:32.287Z,42.76
2018-01-24T04:20:32.294Z,42.38
2018-01-24T04:21:32.301Z,42.38
2018-01-24T04:22:32.306Z,42.00
2018-01-24T04:23:32.313Z,41.06
2018-01-24T04:24:32.321Z,40.01
2018-01-24T04:25:32.329Z,40.77
2018-01-24T04:26:32.333Z,42.57
2018-01-24T04:27:32.340Z,42.85
2018-01-24T04:28:32.349Z,43.80
2018-01-24T04:29:32.356Z,44.27
2018-01-24T04:30:32.360Z,43.80
2018-01-24T04:31:32.367Z,43.04
2018-01-24T04:32:32.379Z,41.82
2018-01-24T04:33:32.379Z,40.68
2018-01-24T04:34:32.388Z,40.68
2018-01-24T04:35:32.392Z,41.82
2018-01-24T04:36:32.402Z,42.29
2018-01-24T04:37:32.405Z,42.19
2018-01-24T04:38:32.414Z,42.95
2018-01-24T04:39:32.420Z,43.04
2018-01-24T04:40:32.427Z,44.09
2018-01-24T04:41:32.433Z,44.56
2018-01-24T04:42:32.440Z,45.12
2018-01-24T04:43:32.453Z,45.12
2018-01-24T04:44:32.455Z,45.41
2018-01-24T04:45:32.461Z,45.31
2018-01-24T04:46:32.469Z,45.69
2018-01-24T04:47:32.473Z,45.57
2018-01-24T04:48:32.484Z,46.42
2018-01-24T04:49:32.487Z,45.41
2018-01-24T04:50:32.494Z,45.79
2018-01-24T04:51:32.501Z,45.10
2018-01-24T04:52:32.508Z,45.12
2018-01-24T04:53:32.514Z,45.12
2018-01-24T04:54:32.521Z,45.60
2018-01-24T04:55:32.528Z,45.86
2018-01-24T04:56:32.535Z,45.29
2018-01-24T04:57:32.541Z,44.56
2018-01-24T04:58:32.547Z,43.52
2018-01-24T04:59:32.554Z,43.96
2018-01-24T05:00:32.563Z,43.99
2018-01-24T05:01:32.570Z,43.80
2018-01-24T05:02:32.575Z,43.90
2018-01-24T05:03:32.582Z,44.93
2018-01-24T05:04:32.593Z,44.65
2018-01-24T05:05:32.594Z,44.93
2018-01-24T05:06:32.603Z,44.65
2018-01-24T05:07:32.608Z,45.12
2018-01-24T05:08:32.615Z,45.50
2018-01-24T05:09:32.622Z,45.79
2018-01-24T05:10:32.628Z,46.26
2018-01-24T05:11:32.635Z,46.17
2018-01-24T05:12:32.641Z,46.92
2018-01-24T05:13:32.648Z,46.73
2018-01-24T05:14:32.654Z,46.83
2018-01-24T05:15:32.661Z,46.45
2018-01-24T05:16:32.668Z,46.92
2018-01-24T05:17:32.674Z,47.96
2018-01-24T05:18:32.681Z,46.92
2018-01-24T05:19:32.690Z,46.55
2018-01-24T05:20:32.695Z,45.98
2018-01-24T05:21:32.701Z,45.50
2018-01-24T05:22:32.711Z,45.41
2018-01-24T05:23:32.713Z,45.12
2018-01-24T05:24:32.720Z,44.65
2018-01-24T05:25:32.726Z,43.99
2018-01-24T05:26:32.733Z,43.52
2018-01-24T05:27:32.746Z,43.71
2018-01-24T05:28:32.753Z,44.56
2018-01-24T05:29:32.754Z,44.46
2018-01-24T05:30:32.760Z,44.65
2018-01-24T05:31:32.767Z,44.65
2018-01-24T05:32:32.773Z,43.90
2018-01-24T05:33:32.780Z,44.65
2018-01-24T05:34:32.824Z,45.60
2018-01-24T05:35:32.795Z,46.17
2018-01-24T05:36:32.801Z,46.73
2018-01-24T05:37:32.806Z,46.36
2018-01-24T05:38:32.812Z,46.26
2018-01-24T05:39:32.823Z,45.79
2018-01-24T05:40:32.830Z,45.60
2018-01-24T05:41:32.834Z,45.50
2018-01-24T05:42:32.843Z,45.88
2018-01-24T05:43:32.848Z,46.36
2018-01-24T05:44:32.856Z,47.11
2018-01-24T05:45:32.862Z,47.58
2018-01-24T05:46:32.868Z,48.34
2018-01-24T05:47:32.874Z,48.25
2018-01-24T05:48:32.881Z,48.15
2018-01-24T05:49:32.889Z,48.72
2018-01-24T05:50:32.901Z,48.34
2018-01-24T05:51:32.901Z,47.49
2018-01-24T05:52:32.907Z,47.87
2018-01-24T05:53:32.915Z,47.20
2018-01-24T05:54:32.921Z,46.92
2018-01-24T05:55:32.929Z,47.87
2018-01-24T05:56:32.941Z,47.49
2018-01-24T05:57:32.940Z,47.77
2018-01-24T05:58:32.949Z,47.20
2018-01-24T05:59:32.955Z,47.11
2018-01-24T06:00:32.968Z,47.30
2018-01-24T06:01:32.967Z,47.30
2018-01-24T06:02:32.975Z,47.02
2018-01-24T06:03:32.982Z,47.20
2018-01-24T06:04:32.989Z,47.20
2018-01-24T06:05:32.994Z,48.44
2018-01-24T06:06:33.001Z,48.44
2018-01-24T06:07:33.009Z,48.53
2018-01-24T06:08:33.016Z,48.82
2018-01-24T06:09:33.021Z,48.25
2018-01-24T06:10:33.028Z,48.63
2018-01-24T06:11:33.037Z,49.29
2018-01-24T06:12:33.042Z,49.19
2018-01-24T06:13:33.050Z,49.19
2018-01-24T06:14:33.055Z,49.66
2018-01-24T06:15:33.064Z,50.54
2018-01-24T06:16:33.071Z,50.14
2018-01-24T06:17:33.077Z,49.66
2018-01-24T06:18:33.084Z,49.38
2018-01-24T06:19:33.092Z,48.34
2018-01-24T06:20:33.097Z,47.68
2018-01-24T06:21:33.104Z,46.83
2018-01-24T06:22:33.108Z,45.53
2018-01-24T06:23:33.117Z,44.58
2018-01-24T06:24:33.122Z,44.01
2018-01-24T06:25:33.131Z,44.01
2018-01-24T06:26:33.136Z,44.48
2018-01-24T06:27:33.145Z,45.34
2018-01-24T06:28:33.151Z,46.66
2018-01-24T06:29:33.159Z,46.47
2018-01-24T06:30:33.165Z,45.81
2018-01-24T06:31:33.173Z,45.62
2018-01-24T06:32:33.177Z,46.75
2018-01-24T06:33:33.222Z,46.94
2018-01-24T06:34:33.190Z,47.23
2018-01-24T06:35:33.198Z,48.06
2018-01-24T06:36:33.204Z,48.25
2018-01-24T06:37:33.211Z,48.06
2018-01-24T06:38:33.218Z,47.96
2018-01-24T06:39:33.225Z,48.15
2018-01-24T06:40:33.231Z,48.44
2018-01-24T06:41:33.238Z,49.29
2018-01-24T06:42:33.246Z,49.66
2018-01-24T06:43:33.252Z,49.57
2018-01-24T06:44:33.258Z,49.76
2018-01-24T06:45:33.265Z,50.23
2018-01-24T06:46:33.272Z,48.82
2018-01-24T06:47:33.280Z,48.82
2018-01-24T06:48:33.286Z,49.38
2018-01-24T06:49:33.293Z,49.10
2018-01-24T06:50:33.299Z,49.38
2018-01-24T06:51:33.306Z,49.57
2018-01-24T06:52:33.313Z,49.57
2018-01-24T06:53:33.319Z,48.44
2018-01-24T06:54:33.327Z,48.25
2018-01-24T06:55:33.335Z,47.96
2018-01-24T06:56:33.340Z,48.25
2018-01-24T06:57:33.407Z,48.91
2018-01-24T06:58:33.357Z,48.53
2018-01-24T06:59:33.360Z,48.44
2018-01-24T07:00:33.366Z,47.87
2018-01-24T07:01:33.375Z,47.11
2018-01-24T07:02:33.379Z,47.39
2018-01-24T07:03:33.386Z,48.25
2018-01-24T07:04:33.394Z,48.44
2018-01-24T07:05:33.400Z,48.72
2018-01-24T07:06:33.406Z,48.72
2018-01-24T07:07:33.414Z,47.02
2018-01-24T07:08:33.420Z,44.56
2018-01-24T07:09:33.427Z,43.71
2018-01-24T07:10:33.434Z,44.65
2018-01-24T07:11:33.441Z,45.69
2018-01-24T07:12:33.448Z,46.83
2018-01-24T07:13:33.457Z,46.92
2018-01-24T07:14:33.462Z,47.39
2018-01-24T07:15:33.467Z,47.87
2018-01-24T07:16:33.478Z,47.77
2018-01-24T07:17:33.482Z,47.11
2018-01-24T07:18:33.490Z,47.87
2018-01-24T07:19:33.496Z,48.25
2018-01-24T07:20:33.503Z,48.06
2018-01-24T07:21:33.510Z,47.77
2018-01-24T07:22:33.517Z,48.34
2018-01-24T07:23:33.524Z,47.96
2018-01-24T07:24:33.532Z,48.25
2018-01-24T07:25:33.537Z,48.25
2018-01-24T07:26:33.544Z,47.02
2018-01-24T07:27:33.552Z,47.39
2018-01-24T07:28:33.559Z,47.87
2018-01-24T07:29:33.564Z,47.96
2018-01-24T07:30:33.573Z,48.15
2018-01-24T07:31:33.580Z,48.63
2018-01-24T07:32:33.587Z,48.72
2018-01-24T07:33:33.595Z,48.25
2018-01-24T07:34:33.599Z,48.06
2018-01-24T07:35:33.608Z,47.77
2018-01-24T07:36:33.618Z,46.26
2018-01-24T07:37:33.621Z,45.50
2018-01-24T07:38:33.630Z,46.26
2018-01-24T07:39:33.644Z,45.79
2018-01-24T07:40:33.645Z,46.36
2018-01-24T07:41:33.650Z,47.11
2018-01-24T07:42:33.657Z,47.96
2018-01-24T07:43:33.664Z,47.68
2018-01-24T07:44:33.672Z,47.02
2018-01-24T07:45:33.676Z,48.06
2018-01-24T07:46:33.685Z,49.38
2018-01-24T07:47:33.692Z,49.19
2018-01-24T07:48:33.700Z,48.34
2018-01-24T07:49:33.706Z,47.96
2018-01-24T07:50:33.716Z,47.68
2018-01-24T07:51:33.723Z,47.70
2018-01-24T07:52:33.785Z,47.77
2018-01-24T07:53:33.733Z,47.70
2018-01-24T07:54:33.741Z,46.55
2018-01-24T07:55:33.749Z,47.04
2018-01-24T07:56:33.761Z,47.51
2018-01-24T07:57:33.763Z,48.72
2018-01-24T07:58:33.770Z,49.50
2018-01-24T07:59:33.777Z,50.16
2018-01-24T08:00:33.786Z,50.16
2018-01-24T08:01:33.789Z,50.35
2018-01-24T08:02:33.797Z,50.16
2018-01-24T08:03:33.804Z,49.60
2018-01-24T08:04:33.812Z,48.84
2018-01-24T08:05:33.819Z,49.22
2018-01-24T08:06:33.826Z,50.16
2018-01-24T08:07:33.834Z,51.20
2018-01-24T08:08:33.841Z,51.11
2018-01-24T08:09:33.847Z,51.11
2018-01-24T08:10:33.856Z,50.45
2018-01-24T08:11:33.862Z,51.11
2018-01-24T08:12:33.868Z,50.16
2018-01-24T08:13:33.876Z,50.73
2018-01-24T08:14:33.882Z,50.92
2018-01-24T08:15:33.890Z,50.92
2018-01-24T08:16:33.945Z,51.20
2018-01-24T08:17:33.905Z,51.11
2018-01-24T08:18:33.913Z,51.11
2018-01-24T08:19:33.917Z,50.26
2018-01-24T08:20:33.927Z,49.22
2018-01-24T08:21:33.933Z,49.12
2018-01-24T08:22:33.943Z,48.74
2018-01-24T08:23:33.950Z,48.18
2018-01-24T08:24:33.957Z,48.55
2018-01-24T08:25:33.974Z,48.65
2018-01-24T08:26:33.969Z,48.74
2018-01-24T08:27:33.978Z,48.18
2018-01-24T08:28:33.984Z,47.80
2018-01-24T08:29:33.992Z,48.36
2018-01-24T08:30:34.006Z,47.80
2018-01-24T08:31:34.006Z,47.80
2018-01-24T08:32:34.014Z,47.04
2018-01-24T08:33:34.018Z,46.75
2018-01-24T08:34:34.028Z,45.81
2018-01-24T08:35:34.035Z,44.98
2018-01-24T08:36:34.041Z,44.51
2018-01-24T08:37:34.054Z,43.75
2018-01-24T08:38:34.056Z,42.99
2018-01-24T08:39:34.065Z,42.23
2018-01-24T08:40:34.073Z,41.47
2018-01-24T08:41:34.082Z,40.81
2018-01-24T08:42:34.085Z,40.17
2018-01-24T08:43:37.010Z,39.32
2018-01-24T08:44:34.101Z,40.45
2018-01-24T08:45:34.108Z,41.12
2018-01-24T08:46:34.117Z,39.60
2018-01-24T08:47:34.127Z,37.80
2018-01-24T08:48:34.135Z,36.68
2018-01-24T08:49:34.141Z,39.72
2018-01-24T08:50:34.148Z,42.37
2018-01-24T08:51:34.156Z,44.17
2018-01-24T08:52:34.164Z,43.32
2018-01-24T08:53:34.172Z,42.18
2018-01-24T08:54:34.184Z,43.13
2018-01-24T08:55:34.191Z,43.79
2018-01-24T08:56:34.197Z,43.98
2018-01-24T08:57:34.205Z,42.94
2018-01-24T08:58:34.215Z,42.58
2018-01-24T08:59:34.239Z,41.63
2018-01-24T09:00:34.646Z,41.82
2018-01-24T09:02:42.191Z,40.88
2018-01-24T09:04:44.197Z,40.21
2018-01-24T09:11:34.334Z,40.04
2018-01-24T09:12:34.341Z,39.95
2018-01-24T09:13:34.350Z,39.18
2018-01-24T09:14:34.361Z,40.70
2018-01-24T09:15:34.369Z,41.94
2018-01-24T09:16:34.381Z,41.85
2018-01-24T09:17:34.388Z,42.22
2018-01-24T09:18:34.400Z,41.75
2018-01-24T09:19:34.410Z,41.46
2018-01-24T09:20:34.421Z,41.20
2018-01-24T09:21:34.433Z,41.49
2018-01-24T09:22:34.442Z,41.96
2018-01-24T09:23:34.450Z,41.77
2018-01-24T09:24:34.464Z,41.58
2018-01-24T09:25:34.476Z,41.86
2018-01-24T09:26:34.483Z,40.72
2018-01-24T09:27:34.492Z,39.40
2018-01-24T09:28:34.504Z,38.75
2018-01-24T09:29:34.513Z,39.32
2018-01-24T09:30:34.524Z,39.70
2018-01-24T09:31:34.534Z,40.46
2018-01-24T09:32:34.545Z,40.56
2018-01-24T09:33:34.555Z,40.84
2018-01-24T09:34:34.567Z,40.56
2018-01-24T09:35:34.642Z,39.32
2018-01-24T09:36:34.590Z,37.71
2018-01-24T09:37:34.601Z,38.46
2018-01-24T09:38:34.611Z,39.25
2018-01-24T09:39:34.623Z,39.43
2018-01-24T09:40:34.634Z,38.77
2018-01-24T09:41:34.644Z,39.06
2018-01-24T09:42:34.656Z,39.06
2018-01-24T09:43:34.669Z,38.68
2018-01-24T09:44:34.680Z,38.70
2018-01-24T09:45:34.693Z,38.39
2018-01-24T09:46:34.703Z,38.89
2018-01-24T09:47:34.716Z,39.45
2018-01-24T09:48:34.729Z,39.36
2018-01-24T09:49:34.743Z,38.70
2018-01-24T09:50:34.751Z,38.41
2018-01-24T09:51:34.766Z,38.22
2018-01-24T09:52:34.774Z,36.98
2018-01-24T09:53:34.787Z,36.13
2018-01-24T09:54:34.799Z,36.41
2018-01-24T09:55:34.814Z,36.60
2018-01-24T09:56:34.825Z,37.84
2018-01-24T09:57:34.837Z,38.12
2018-01-24T09:58:34.849Z,35.96
2018-01-24T09:59:34.862Z,33.67
2018-01-24T10:00:34.876Z,33.67
2018-01-24T10:01:34.891Z,33.96
2018-01-24T10:02:34.898Z,35.00
2018-01-24T10:03:34.914Z,33.96
2018-01-24T10:04:34.929Z,34.17
2018-01-24T10:05:34.938Z,35.02
2018-01-24T10:06:34.951Z,35.21
2018-01-24T10:07:34.964Z,36.26
2018-01-24T10:08:34.977Z,36.26
2018-01-24T10:09:34.989Z,35.88
2018-01-24T10:10:35.003Z,36.94
2018-01-24T10:11:35.017Z,35.61
2018-01-24T10:12:35.031Z,34.94
2018-01-24T10:13:35.045Z,34.94
2018-01-24T10:14:35.056Z,34.28
2018-01-24T10:15:35.070Z,34.66
2018-01-24T10:16:35.140Z,35.25
2018-01-24T10:17:35.099Z,35.53
2018-01-24T10:18:35.112Z,35.35
2018-01-24T10:19:35.125Z,35.74
2018-01-24T10:20:35.140Z,35.08
2018-01-24T10:21:35.153Z,35.17
2018-01-24T10:22:35.166Z,33.26
2018-01-24T10:23:35.182Z,32.12
2018-01-24T10:24:35.198Z,33.26
2018-01-24T10:25:35.213Z,35.36
2018-01-24T10:26:35.225Z,34.61
2018-01-24T10:27:35.240Z,33.95
2018-01-24T10:28:35.255Z,33.37
2018-01-24T10:29:35.269Z,33.20
2018-01-24T10:30:35.329Z,30.82
2018-01-24T10:31:35.299Z,30.82
2018-01-24T10:32:35.313Z,31.20
2018-01-24T10:33:35.328Z,31.10
2018-01-24T10:34:35.342Z,29.37
2018-01-24T10:35:35.358Z,29.85
2018-01-24T10:36:35.374Z,32.14
2018-01-24T10:37:35.387Z,32.40
2018-01-24T10:38:35.402Z,35.19
2018-01-24T10:39:35.418Z,35.95
2018-01-24T10:40:35.435Z,35.10
2018-01-24T10:41:35.449Z,33.85
2018-01-24T10:42:35.464Z,34.61
2018-01-24T10:43:35.479Z,34.16
2018-01-24T10:44:35.497Z,32.61
2018-01-24T10:45:35.512Z,32.32
2018-01-24T10:46:35.528Z,32.50
2018-01-24T10:47:35.545Z,34.05
2018-01-24T10:48:35.560Z,31.85
2018-01-24T10:49:35.578Z,31.95
2018-01-24T10:50:35.590Z,32.34
2018-01-24T10:51:35.608Z,32.34
2018-01-24T10:52:35.624Z,33.22
2018-01-24T10:53:35.638Z,32.37
2018-01-24T10:54:35.654Z,31.99
2018-01-24T10:55:35.673Z,31.24
2018-01-24T10:56:35.688Z,30.67
2018-01-24T10:57:35.702Z,29.54
2018-01-24T10:58:35.722Z,28.20
2018-01-24T10:59:35.739Z,27.34
2018-01-24T11:00:35.753Z,27.45
2018-01-24T11:01:35.768Z,26.78
2018-01-24T11:02:35.786Z,26.50
2018-01-24T11:03:35.802Z,23.61
2018-01-24T11:04:35.821Z,23.79
2018-01-24T11:05:35.837Z,26.06
2018-01-24T11:06:35.855Z,26.72
2018-01-24T11:07:35.870Z,30.16
2018-01-24T11:08:35.889Z,28.83
2018-01-24T11:09:35.905Z,27.68
2018-01-24T11:10:35.926Z,28.25
2018-01-24T11:11:35.940Z,28.16
2018-01-24T11:12:35.958Z,26.70
2018-01-24T11:13:35.973Z,28.99
2018-01-24T11:14:35.993Z,29.58
2018-01-24T11:15:36.017Z,28.80
2018-01-24T11:16:36.027Z,28.72
2018-01-24T11:17:36.044Z,29.67
2018-01-24T11:18:36.060Z,30.93
2018-01-24T11:19:36.077Z,29.49
2018-01-24T11:20:36.096Z,29.80
2018-01-24T11:21:36.111Z,29.51
2018-01-24T11:22:36.130Z,30.00
2018-01-24T11:23:36.147Z,30.21
2018-01-24T11:24:36.170Z,26.85
2018-01-24T11:25:36.181Z,25.62
2018-01-24T11:26:36.199Z,26.66
2018-01-24T11:27:36.216Z,26.37
2018-01-24T11:28:36.245Z,26.66
2018-01-24T11:29:36.254Z,25.12
2018-01-24T11:30:36.269Z,25.12
2018-01-24T11:31:36.288Z,25.10
2018-01-24T11:32:36.305Z,25.68
2018-01-24T11:33:36.322Z,26.90
2018-01-24T11:34:36.342Z,29.86
2018-01-24T11:35:36.359Z,30.74
2018-01-24T11:36:36.378Z,27.97
2018-01-24T11:37:36.396Z,27.86
2018-01-24T11:38:36.414Z,27.94
2018-01-24T11:39:36.432Z,29.56
2018-01-24T11:40:36.452Z,29.85
2018-01-24T11:41:36.466Z,31.48
2018-01-24T11:42:36.484Z,30.35
2018-01-24T11:43:36.509Z,27.68
2018-01-24T11:44:36.522Z,26.43
2018-01-24T11:45:36.539Z,28.83
2018-01-24T11:46:36.557Z,30.18
2018-01-24T11:47:36.574Z,30.10
2018-01-24T11:48:36.595Z,28.11
2018-01-24T11:49:36.609Z,27.72
2018-01-24T11:50:36.629Z,27.64
2018-01-24T11:51:36.646Z,28.13
2018-01-24T11:52:36.667Z,27.83
2018-01-24T11:53:36.682Z,28.69
2018-01-24T11:54:36.704Z,29.66
2018-01-24T11:55:36.721Z,28.23
2018-01-24T11:56:36.738Z,27.95
2018-01-24T11:57:36.757Z,26.90
2018-01-24T11:58:36.775Z,26.52
2018-01-24T11:59:36.793Z,25.82
2018-01-24T12:00:36.813Z,26.41
2018-01-24T12:01:36.831Z,26.40
2018-01-24T12:02:36.852Z,26.76
2018-01-24T12:03:36.869Z,28.49
2018-01-24T12:04:36.888Z,29.92
2018-01-24T12:05:36.906Z,30.22
2018-01-24T12:06:36.926Z,28.90
2018-01-24T12:07:36.945Z,28.44
2018-01-24T12:08:36.965Z,27.86
2018-01-24T12:09:36.983Z,27.30
2018-01-24T12:10:37.006Z,27.87
2018-01-24T12:11:37.023Z,28.08
2018-01-24T12:12:37.042Z,27.89
2018-01-24T12:13:37.065Z,27.50
2018-01-24T12:14:37.081Z,26.45
2018-01-24T12:15:37.105Z,26.75
2018-01-24T12:16:37.121Z,25.89
2018-01-24T12:17:37.141Z,23.78
2018-01-24T12:18:37.162Z,23.68
2018-01-24T12:19:37.182Z,24.84
2018-01-24T12:20:37.201Z,24.73
2018-01-24T12:21:37.220Z,25.21
2018-01-24T12:22:37.243Z,23.30
2018-01-24T12:23:37.264Z,23.10
2018-01-24T12:24:37.284Z,22.91
2018-01-24T12:25:37.303Z,23.39
2018-01-24T12:26:37.323Z,24.07
2018-01-24T12:27:37.344Z,25.31
2018-01-24T12:28:37.366Z,25.02
2018-01-24T12:29:37.388Z,25.23
2018-01-24T12:30:37.408Z,25.71
2018-01-24T12:31:37.430Z,25.60
2018-01-24T12:32:37.450Z,25.89
2018-01-24T12:33:37.469Z,26.46
2018-01-24T12:34:37.492Z,26.94
2018-01-24T12:35:37.513Z,26.74
2018-01-24T12:36:37.537Z,27.38
2018-01-24T12:37:37.555Z,29.27
2018-01-24T12:38:37.578Z,32.20
2018-01-24T12:39:37.600Z,34.69
2018-01-24T12:40:37.620Z,35.47
2018-01-24T12:41:37.639Z,34.81
2018-01-24T12:42:37.663Z,32.90
2018-01-24T12:43:37.683Z,32.15
2018-01-24T12:44:37.705Z,31.12
2018-01-24T12:45:37.727Z,29.87
2018-01-24T12:46:37.746Z,29.50
2018-01-24T12:47:37.767Z,29.31
2018-01-24T12:48:37.792Z,28.94
2018-01-24T12:49:37.811Z,28.08
2018-01-24T12:50:37.832Z,28.37
2018-01-24T12:51:37.852Z,28.86
2018-01-24T12:52:37.874Z,28.86
2018-01-24T12:53:37.895Z,28.94
2018-01-24T12:54:37.920Z,28.24
2018-01-24T12:55:37.942Z,30.16
2018-01-24T12:56:37.961Z,31.40
2018-01-24T12:57:37.984Z,31.42
2018-01-24T12:58:38.004Z,30.84
2018-01-24T12:59:38.027Z,30.18
2018-01-24T13:00:38.049Z,29.50